createdAt,value
2022-09-28T00:01:49.827Z,44.17
2022-09-28T00:04:21.955Z,45.28
2022-09-28T00:06:52.344Z,46.05
2022-09-28T00:09:22.697Z,44.40
2022-09-28T00:11:54.096Z,47.38
2022-09-28T00:14:25.009Z,44.85
2022-09-28T00:16:55.380Z,43.22
2022-09-28T00:19:26.371Z,43.40
2022-09-28T00:21:56.743Z,44.05
2022-09-28T00:24:28.998Z,45.03
2022-09-28T00:27:02.896Z,43.05
2022-09-28T00:29:34.834Z,43.83
2022-09-28T00:32:15.374Z,43.58
2022-09-28T00:34:50.379Z,43.83
2022-09-28T00:37:21.826Z,44.72
2022-09-28T00:39:52.636Z,45.10
2022-09-28T00:42:24.705Z,44.13
2022-09-28T00:44:59.109Z,43.05
2022-09-28T00:47:39.543Z,52.17
2022-09-28T00:50:16.077Z,45.83
2022-09-28T00:52:51.178Z,44.95
2022-09-28T00:55:34.704Z,56.10
2022-09-28T00:58:06.613Z,58.83
2022-09-28T01:00:37.554Z,43.05
2022-09-28T01:03:08.227Z,44.15
2022-09-28T01:05:40.135Z,43.38
2022-09-28T01:08:11.804Z,44.88
2022-09-28T01:10:45.093Z,43.05
2022-09-28T01:13:16.727Z,44.10
2022-09-28T01:16:09.476Z,46.47
2022-09-28T01:19:00.977Z,43.90
2022-09-28T01:21:37.333Z,46.17
2022-09-28T01:24:27.382Z,44.80
2022-09-28T01:27:03.072Z,45.67
2022-09-28T01:29:40.622Z,45.00
2022-09-28T01:32:30.341Z,48.72
2022-09-28T01:35:20.173Z,64.60
2022-09-28T01:37:59.585Z,49.53
2022-09-28T01:40:31.477Z,50.92
2022-09-28T01:43:07.065Z,53.45
2022-09-28T01:45:47.211Z,51.88
2022-09-28T01:48:24.397Z,47.55
2022-09-28T01:50:57.361Z,48.00
2022-09-28T01:53:30.220Z,47.10
2022-09-28T01:56:06.159Z,47.83
2022-09-28T01:58:41.327Z,46.28
2022-09-28T02:01:19.095Z,43.97
2022-09-28T02:03:59.615Z,45.83
2022-09-28T02:06:40.355Z,44.78
2022-09-28T02:09:14.126Z,44.28
2022-09-28T02:11:52.030Z,46.63
2022-09-28T02:14:23.472Z,45.47
2022-09-28T02:16:58.637Z,45.10
2022-09-28T02:19:34.078Z,46.50
2022-09-28T02:22:24.953Z,45.60
2022-09-28T02:25:00.543Z,59.95
2022-09-28T02:27:37.165Z,46.70
2022-09-28T02:30:08.302Z,45.90
2022-09-28T02:32:41.806Z,44.90
2022-09-28T02:35:14.820Z,44.00
2022-09-28T02:37:46.070Z,44.90
2022-09-28T02:40:21.109Z,42.42
2022-09-28T02:43:12.315Z,44.17
2022-09-28T02:46:03.590Z,42.75
2022-09-28T02:49:17.236Z,42.45
2022-09-28T02:52:09.682Z,38.88
2022-09-28T02:54:57.913Z,41.67
2022-09-28T02:57:48.173Z,40.97
2022-09-28T03:00:24.351Z,41.15
2022-09-28T03:03:12.009Z,41.13
2022-09-28T03:06:02.719Z,39.78
2022-09-28T03:08:43.066Z,39.33
2022-09-28T03:11:19.714Z,43.33
2022-09-28T03:13:53.722Z,42.35
2022-09-28T03:16:29.838Z,43.42
2022-09-28T03:19:00.651Z,45.35
2022-09-28T03:21:31.360Z,44.25
2022-09-28T03:24:02.768Z,43.22
2022-09-28T03:26:33.354Z,42.05
2022-09-28T03:29:03.954Z,42.47
2022-09-28T03:31:34.492Z,44.05
2022-09-28T03:34:05.337Z,39.50
2022-09-28T03:36:36.272Z,40.05
2022-09-28T03:39:10.309Z,43.88
2022-09-28T03:41:41.629Z,40.70
2022-09-28T03:44:12.727Z,40.50
2022-09-28T03:46:43.171Z,40.80
2022-09-28T03:49:13.952Z,42.28
2022-09-28T03:51:44.832Z,45.28
2022-09-28T03:54:15.357Z,41.53
2022-09-28T03:56:46.895Z,46.70
2022-09-28T03:59:17.424Z,48.08
2022-09-28T04:01:48.015Z,48.72
2022-09-28T04:04:18.836Z,44.60
2022-09-28T04:06:49.653Z,49.55
2022-09-28T04:09:20.270Z,45.10
2022-09-28T04:12:03.287Z,50.92
2022-09-28T04:14:34.531Z,45.40
2022-09-28T04:17:07.048Z,42.22
2022-09-28T04:19:37.689Z,44.75
2022-09-28T04:22:28.044Z,44.22
2022-09-28T04:24:58.467Z,43.35
2022-09-28T04:27:48.485Z,44.55
2022-09-28T04:30:19.116Z,40.35
2022-09-28T04:32:49.838Z,43.22
2022-09-28T04:35:20.835Z,43.92
2022-09-28T04:37:51.412Z,40.67
2022-09-28T04:40:40.088Z,38.03
2022-09-28T04:43:11.126Z,40.65
2022-09-28T04:45:42.027Z,39.88
2022-09-28T04:48:17.656Z,40.53
2022-09-28T04:51:07.583Z,39.72
2022-09-28T04:53:38.296Z,40.08
2022-09-28T04:56:11.052Z,38.35
2022-09-28T04:58:43.522Z,39.88
2022-09-28T05:01:16.767Z,38.53
2022-09-28T05:04:06.808Z,55.65
2022-09-28T05:06:56.932Z,57.28
2022-09-28T05:09:27.752Z,54.35
2022-09-28T05:11:58.109Z,36.97
2022-09-28T05:14:28.895Z,35.83
2022-09-28T05:16:59.740Z,37.45
2022-09-28T05:19:40.808Z,36.28
2022-09-28T05:22:16.220Z,35.92
2022-09-28T05:24:49.682Z,34.80
2022-09-28T05:27:20.406Z,31.95
2022-09-28T05:30:01.485Z,33.13
2022-09-28T05:32:53.062Z,32.20
2022-09-28T05:35:33.776Z,31.10
2022-09-28T05:38:08.338Z,29.60
2022-09-28T05:40:38.814Z,30.58
2022-09-28T05:43:09.672Z,30.55
2022-09-28T05:45:40.164Z,28.73
2022-09-28T05:48:10.854Z,28.73
2022-09-28T05:50:41.897Z,30.25
2022-09-28T05:53:12.966Z,28.55
2022-09-28T05:55:43.844Z,27.85
2022-09-28T05:58:14.330Z,29.08
2022-09-28T06:00:45.593Z,26.60
2022-09-28T06:03:17.290Z,27.27
2022-09-28T06:05:48.945Z,26.88
2022-09-28T06:08:19.618Z,26.92
2022-09-28T06:11:02.412Z,39.17
2022-09-28T06:13:33.656Z,28.52
2022-09-28T06:16:06.280Z,27.15
2022-09-28T06:18:37.177Z,27.73
2022-09-28T06:21:27.163Z,28.42
2022-09-28T06:23:57.766Z,27.77
2022-09-28T06:26:28.920Z,26.67
2022-09-28T06:28:59.059Z,24.38
2022-09-28T06:31:31.606Z,28.10
2022-09-28T06:34:03.295Z,27.23
2022-09-28T06:36:33.990Z,25.77
2022-09-28T06:39:05.376Z,26.30
2022-09-28T06:41:37.938Z,26.15
2022-09-28T06:44:17.461Z,27.33
2022-09-28T06:47:07.661Z,26.50
2022-09-28T06:49:57.591Z,27.48
2022-09-28T06:52:47.442Z,27.88
2022-09-28T06:55:33.933Z,29.42
2022-09-28T06:58:07.698Z,30.33
2022-09-28T07:00:39.911Z,33.60
2022-09-28T07:03:13.241Z,31.98
2022-09-28T07:06:03.563Z,34.95
2022-09-28T07:08:56.813Z,32.53
2022-09-28T07:11:59.107Z,33.30
2022-09-28T07:14:51.158Z,33.20
2022-09-28T07:17:22.062Z,34.00
2022-09-28T07:19:57.951Z,34.58
2022-09-28T07:22:40.529Z,34.70
2022-09-28T07:25:15.817Z,34.42
2022-09-28T07:28:07.054Z,34.17
2022-09-28T07:30:59.460Z,32.88
2022-09-28T07:33:52.932Z,33.88
2022-09-28T07:36:31.841Z,34.83
2022-09-28T07:39:02.616Z,33.38
2022-09-28T07:41:36.660Z,33.60
2022-09-28T07:44:09.318Z,33.60
2022-09-28T07:46:42.597Z,33.92
2022-09-28T07:49:33.895Z,35.40
2022-09-28T07:52:27.869Z,35.83
2022-09-28T07:55:12.641Z,36.42
2022-09-28T07:58:03.203Z,33.80
2022-09-28T08:00:53.932Z,34.88
2022-09-28T08:03:25.071Z,33.28
2022-09-28T08:06:00.495Z,36.42
2022-09-28T08:08:31.627Z,38.20
2022-09-28T08:11:02.221Z,37.30
2022-09-28T08:13:54.380Z,38.75
2022-09-28T08:16:48.622Z,39.08
2022-09-28T08:20:01.245Z,38.50
2022-09-28T08:22:33.777Z,38.63
2022-09-28T08:25:04.374Z,38.70
2022-09-28T08:27:35.311Z,40.83
2022-09-28T08:30:06.867Z,41.55
2022-09-28T08:32:50.882Z,42.42
2022-09-28T08:35:42.490Z,43.38
2022-09-28T08:38:19.950Z,42.67
2022-09-28T08:41:16.127Z,43.53
2022-09-28T08:44:15.353Z,42.30
2022-09-28T08:47:09.251Z,43.28
2022-09-28T08:50:00.235Z,44.65
2022-09-28T08:52:41.589Z,43.03
2022-09-28T08:55:33.922Z,43.58
2022-09-28T08:58:08.256Z,43.17
2022-09-28T09:01:00.651Z,43.28
2022-09-28T09:03:43.288Z,41.03
2022-09-28T09:06:48.715Z,42.25
2022-09-28T09:09:58.347Z,41.78
2022-09-28T09:12:48.565Z,43.65
2022-09-28T09:15:36.869Z,45.60
2022-09-28T09:18:24.414Z,44.72
2022-09-28T09:21:27.557Z,43.13
2022-09-28T09:23:59.007Z,44.55
2022-09-28T09:26:49.432Z,44.70
2022-09-28T09:29:39.506Z,44.67
2022-09-28T09:32:29.585Z,46.28
2022-09-28T09:35:21.835Z,44.45
2022-09-28T09:38:32.183Z,43.45
2022-09-28T09:41:27.082Z,43.15
2022-09-28T09:44:26.080Z,44.05
2022-09-28T09:47:21.083Z,45.75
2022-09-28T09:50:08.307Z,44.38
2022-09-28T09:52:53.933Z,44.33
2022-09-28T09:55:29.935Z,44.53
2022-09-28T09:58:26.844Z,43.58
2022-09-28T10:01:09.809Z,45.10
2022-09-28T10:04:00.502Z,43.25
2022-09-28T10:06:36.377Z,43.80
2022-09-28T10:09:13.957Z,44.80
2022-09-28T10:11:53.670Z,43.72
2022-09-28T10:14:25.745Z,44.58
2022-09-28T10:17:05.325Z,44.67
2022-09-28T10:19:57.453Z,45.38
2022-09-28T10:22:47.986Z,46.28
2022-09-28T10:25:20.670Z,48.30
2022-09-28T10:27:54.066Z,47.28
2022-09-28T10:30:26.949Z,47.45
2022-09-28T10:33:02.209Z,47.60
2022-09-28T10:35:44.868Z,47.47
2022-09-28T10:38:19.976Z,47.25
2022-09-28T10:41:12.013Z,47.15
2022-09-28T10:44:12.224Z,47.15
2022-09-28T10:47:06.844Z,46.90
2022-09-28T10:49:46.515Z,46.60
2022-09-28T10:52:40.236Z,48.45
2022-09-28T10:55:34.056Z,48.70
2022-09-28T10:58:20.874Z,49.40
2022-09-28T11:00:52.256Z,49.58
2022-09-28T11:03:27.503Z,47.33
2022-09-28T11:06:04.169Z,48.40
2022-09-28T11:08:38.809Z,49.08
2022-09-28T11:11:18.317Z,47.88
2022-09-28T11:13:52.869Z,48.35
2022-09-28T11:16:31.785Z,48.08
2022-09-28T11:19:24.863Z,50.03
2022-09-28T11:21:55.066Z,50.35
2022-09-28T11:24:33.137Z,50.80
2022-09-28T11:27:06.644Z,49.08
2022-09-28T11:29:43.308Z,47.63
2022-09-28T11:32:41.852Z,52.03
2022-09-28T11:35:44.945Z,48.10
2022-09-28T11:38:38.177Z,51.45
2022-09-28T11:41:41.053Z,50.10
2022-09-28T11:44:33.256Z,48.38
2022-09-28T11:47:21.896Z,54.30
2022-09-28T11:49:57.683Z,90.38
2022-09-28T11:52:47.750Z,52.17
2022-09-28T11:55:37.866Z,50.75
2022-09-28T11:58:28.050Z,51.47
2022-09-28T12:01:13.407Z,49.42
2022-09-28T12:04:09.603Z,51.72
2022-09-28T12:06:54.618Z,50.97
2022-09-28T12:09:38.519Z,49.42
2022-09-28T12:12:34.215Z,48.85
2022-09-28T12:15:17.378Z,49.53
2022-09-28T12:18:07.240Z,49.45
2022-09-28T12:20:41.790Z,47.75
2022-09-28T12:23:31.653Z,49.47
2022-09-28T12:26:03.599Z,48.97
2022-09-28T12:28:41.121Z,48.65
2022-09-28T12:31:20.638Z,49.03
2022-09-28T12:33:52.125Z,48.60
2022-09-28T12:36:31.843Z,49.80
2022-09-28T12:39:35.567Z,51.30
2022-09-28T12:42:22.128Z,50.10
2022-09-28T12:45:01.910Z,51.05
2022-09-28T12:47:42.283Z,50.72
2022-09-28T12:50:41.599Z,51.58
2022-09-28T12:53:33.869Z,51.10
2022-09-28T12:56:10.915Z,51.70
2022-09-28T12:59:02.537Z,54.63
2022-09-28T13:01:52.388Z,50.90
2022-09-28T13:04:31.619Z,52.50
2022-09-28T13:07:09.281Z,52.50
2022-09-28T13:09:59.343Z,53.05
2022-09-28T13:12:49.072Z,52.63
2022-09-28T13:15:39.167Z,54.45
2022-09-28T13:18:12.595Z,53.72
2022-09-28T13:20:47.399Z,55.10
2022-09-28T13:23:37.116Z,54.65
2022-09-28T13:26:26.986Z,55.05
2022-09-28T13:29:00.810Z,55.30
2022-09-28T13:31:34.974Z,51.97
2022-09-28T13:34:08.638Z,54.42
2022-09-28T13:36:40.461Z,52.92
2022-09-28T13:39:30.891Z,53.90
2022-09-28T13:42:02.620Z,49.88
2022-09-28T13:44:44.933Z,51.85
2022-09-28T13:47:28.616Z,52.95
2022-09-28T13:50:18.600Z,55.65
2022-09-28T13:52:52.694Z,54.35
2022-09-28T13:55:42.904Z,53.63
2022-09-28T13:58:23.786Z,53.80
2022-09-28T14:00:58.818Z,52.67
2022-09-28T14:03:31.608Z,51.50
2022-09-28T14:06:21.363Z,55.40
2022-09-28T14:09:11.797Z,55.25
2022-09-28T14:11:44.706Z,58.03
2022-09-28T14:14:27.039Z,56.33
2022-09-28T14:17:16.823Z,57.13
2022-09-28T14:19:48.150Z,58.40
2022-09-28T14:22:25.845Z,55.85
2022-09-28T14:25:01.133Z,55.40
2022-09-28T14:27:44.341Z,56.85
2022-09-28T14:30:23.657Z,56.70
2022-09-28T14:32:59.768Z,79.95
2022-09-28T14:35:34.986Z,58.40
2022-09-28T14:38:33.930Z,56.65
2022-09-28T14:41:24.452Z,58.40
2022-09-28T14:44:02.814Z,55.63
2022-09-28T14:46:34.803Z,55.58
2022-09-28T14:49:07.895Z,58.08
2022-09-28T14:51:57.648Z,57.30
2022-09-28T14:54:47.367Z,57.10
2022-09-28T14:57:28.878Z,57.17
2022-09-28T15:00:01.413Z,57.83
2022-09-28T15:02:35.644Z,56.97
2022-09-28T15:05:26.291Z,57.00
2022-09-28T15:07:57.635Z,56.85
2022-09-28T15:10:32.924Z,73.15
2022-09-28T15:13:08.004Z,57.00
2022-09-28T15:15:40.482Z,54.88
2022-09-28T15:18:19.474Z,55.15
2022-09-28T15:20:51.430Z,53.00
2022-09-28T15:23:41.672Z,54.90
2022-09-28T15:26:32.504Z,55.28
2022-09-28T15:29:05.943Z,57.00
2022-09-28T15:31:38.759Z,54.78
2022-09-28T15:34:34.376Z,57.95
2022-09-28T15:37:10.571Z,59.63
2022-09-28T15:39:42.137Z,56.60
2022-09-28T15:42:12.708Z,57.35
2022-09-28T15:44:44.417Z,54.00
2022-09-28T15:47:18.174Z,69.95
2022-09-28T15:50:07.646Z,55.58
2022-09-28T15:52:40.183Z,57.80
2022-09-28T15:55:30.182Z,54.50
2022-09-28T15:58:18.637Z,56.38
2022-09-28T16:00:49.978Z,54.83
2022-09-28T16:03:23.466Z,54.58
2022-09-28T16:06:07.202Z,67.60
2022-09-28T16:08:43.570Z,52.50
2022-09-28T16:11:33.439Z,53.10
2022-09-28T16:14:07.730Z,53.47
2022-09-28T16:16:46.385Z,49.63
2022-09-28T16:19:37.209Z,52.08
2022-09-28T16:22:17.803Z,51.33
2022-09-28T16:24:56.171Z,50.55
2022-09-28T16:27:29.952Z,48.47
2022-09-28T16:30:22.657Z,50.25
2022-09-28T16:33:10.861Z,50.38
2022-09-28T16:35:58.931Z,48.20
2022-09-28T16:38:29.549Z,46.88
2022-09-28T16:41:04.231Z,49.25
2022-09-28T16:43:38.044Z,49.45
2022-09-28T16:46:16.898Z,48.85
2022-09-28T16:48:50.469Z,47.58
2022-09-28T16:51:22.081Z,50.30
2022-09-28T16:54:11.919Z,48.45
2022-09-28T16:56:42.566Z,51.67
2022-09-28T16:59:13.947Z,50.65
2022-09-28T17:01:45.253Z,50.17
2022-09-28T17:04:15.622Z,49.42
2022-09-28T17:06:46.309Z,48.10
2022-09-28T17:09:16.543Z,46.78
2022-09-28T17:11:46.792Z,66.70
2022-09-28T17:14:17.615Z,59.08
2022-09-28T17:17:07.789Z,42.85
2022-09-28T17:19:38.617Z,44.67
2022-09-28T17:22:09.613Z,42.60
2022-09-28T17:24:40.434Z,43.72
2022-09-28T17:27:14.932Z,44.85
2022-09-28T17:29:45.208Z,43.83
2022-09-28T17:32:19.998Z,45.80
2022-09-28T17:35:00.743Z,45.05
2022-09-28T17:37:31.361Z,42.67
2022-09-28T17:40:02.149Z,41.35
2022-09-28T17:42:32.678Z,43.35
2022-09-28T17:45:03.074Z,41.42
2022-09-28T17:47:34.427Z,42.67
2022-09-28T17:50:05.401Z,44.90
2022-09-28T17:52:37.949Z,41.55
2022-09-28T17:55:08.397Z,43.10
2022-09-28T17:57:38.937Z,43.90
2022-09-28T18:00:10.690Z,43.58
2022-09-28T18:02:41.883Z,42.58
2022-09-28T18:05:13.408Z,43.67
2022-09-28T18:07:47.886Z,42.35
2022-09-28T18:10:21.263Z,41.90
2022-09-28T18:12:51.951Z,43.97
2022-09-28T18:15:22.943Z,43.42
2022-09-28T18:17:53.256Z,42.55
2022-09-28T18:20:23.463Z,45.85
2022-09-28T18:22:53.736Z,43.10
2022-09-28T18:25:23.964Z,43.15
2022-09-28T18:27:58.732Z,43.72
2022-09-28T18:30:29.908Z,43.30
2022-09-28T18:33:00.213Z,42.35
2022-09-28T18:35:30.854Z,41.25
2022-09-28T18:38:01.242Z,41.90
2022-09-28T18:40:31.823Z,43.78
2022-09-28T18:43:02.448Z,41.63
2022-09-28T18:45:32.741Z,42.00
2022-09-28T18:48:04.047Z,43.80
2022-09-28T18:50:34.305Z,41.50
2022-09-28T18:53:14.052Z,43.00
2022-09-28T18:55:46.225Z,40.95
2022-09-28T18:58:16.761Z,41.75
2022-09-28T19:00:47.862Z,42.22
2022-09-28T19:03:18.541Z,42.58
2022-09-28T19:05:49.197Z,42.10
2022-09-28T19:08:22.218Z,43.08
2022-09-28T19:10:54.693Z,40.72
2022-09-28T19:13:25.644Z,41.88
2022-09-28T19:15:56.851Z,40.13
2022-09-28T19:18:27.614Z,37.50
2022-09-28T19:20:58.293Z,40.28
2022-09-28T19:23:28.993Z,38.90
2022-09-28T19:25:59.354Z,38.67
2022-09-28T19:28:30.153Z,36.95
2022-09-28T19:33:36.182Z,38.90
2022-09-28T19:36:08.325Z,39.00
2022-09-28T19:38:39.631Z,38.38
2022-09-28T19:41:43.115Z,39.60
2022-09-28T19:44:25.937Z,38.53
2022-09-28T19:47:15.672Z,38.22
2022-09-28T19:49:46.020Z,39.80
2022-09-28T19:52:19.874Z,41.92
2022-09-28T19:54:57.914Z,39.13
2022-09-28T19:57:29.553Z,39.22
2022-09-28T20:00:02.849Z,39.28
2022-09-28T20:02:37.598Z,39.58
2022-09-28T20:05:08.075Z,39.58
2022-09-28T20:07:40.780Z,40.55
2022-09-28T20:10:13.364Z,39.95
2022-09-28T20:12:44.347Z,40.47
2022-09-28T20:15:15.196Z,40.67
2022-09-28T20:17:45.787Z,39.55
2022-09-28T20:20:16.265Z,40.38
2022-09-28T20:22:46.960Z,39.88
2022-09-28T20:25:17.410Z,38.80
2022-09-28T20:27:47.775Z,41.17
2022-09-28T20:30:18.213Z,40.13
2022-09-28T20:32:49.737Z,40.92
2022-09-28T20:35:32.243Z,41.33
2022-09-28T20:38:10.546Z,41.60
2022-09-28T20:40:42.485Z,42.30
2022-09-28T20:43:12.702Z,42.28
2022-09-28T20:45:42.791Z,42.30
2022-09-28T20:48:13.227Z,39.13
2022-09-28T20:50:44.107Z,40.72
2022-09-28T20:53:14.458Z,40.88
2022-09-28T20:55:47.508Z,41.28
2022-09-28T20:58:18.286Z,41.38
2022-09-28T21:00:48.729Z,43.20
2022-09-28T21:03:19.584Z,42.42
2022-09-28T21:05:53.149Z,41.40
2022-09-28T21:08:26.702Z,40.42
2022-09-28T21:10:56.853Z,40.95
2022-09-28T21:13:27.538Z,43.22
2022-09-28T21:15:57.767Z,41.90
2022-09-28T21:18:28.093Z,41.85
2022-09-28T21:20:58.208Z,40.85
2022-09-28T21:23:28.139Z,40.40
2022-09-28T21:26:05.253Z,39.25
2022-09-28T21:28:35.974Z,38.45
2022-09-28T21:31:08.331Z,38.88
2022-09-28T21:33:38.857Z,37.63
2022-09-28T21:36:10.282Z,37.20
2022-09-28T21:38:40.656Z,36.17
2022-09-28T21:41:11.906Z,35.50
2022-09-28T21:43:42.150Z,36.13
2022-09-28T21:46:12.838Z,34.80
2022-09-28T21:48:43.739Z,34.70
2022-09-28T21:51:16.381Z,35.42
2022-09-28T21:53:46.804Z,34.97
2022-09-28T21:56:17.328Z,33.28
2022-09-28T21:58:47.136Z,33.20
2022-09-28T22:01:21.884Z,33.63
2022-09-28T22:03:53.482Z,32.65
2022-09-28T22:06:25.023Z,33.75
2022-09-28T22:08:55.158Z,33.75
2022-09-28T22:11:27.331Z,30.88
2022-09-28T22:13:59.198Z,31.55
2022-09-28T22:16:31.162Z,32.30
2022-09-28T22:19:01.987Z,30.25
2022-09-28T22:21:34.397Z,31.30
2022-09-28T22:24:06.320Z,31.23
2022-09-28T22:26:38.629Z,30.40
2022-09-28T22:29:12.445Z,30.58
2022-09-28T22:31:43.326Z,29.55
2022-09-28T22:34:13.812Z,28.80
2022-09-28T22:36:43.974Z,29.40
2022-09-28T22:39:14.467Z,29.65
2022-09-28T22:41:45.365Z,30.30
2022-09-28T22:44:15.688Z,30.05
2022-09-28T22:46:45.981Z,30.35
2022-09-28T22:49:17.038Z,29.10
2022-09-28T22:51:47.426Z,30.85
2022-09-28T22:54:18.124Z,29.80
2022-09-28T22:56:48.477Z,31.35
2022-09-28T22:59:18.930Z,30.00
2022-09-28T23:01:49.807Z,28.77
2022-09-28T23:04:20.484Z,28.50
2022-09-28T23:06:50.861Z,27.63
2022-09-28T23:09:21.242Z,27.25
2022-09-28T23:11:51.801Z,28.95
2022-09-28T23:14:22.692Z,26.65
2022-09-28T23:16:52.883Z,27.50
2022-09-28T23:19:23.876Z,26.95
2022-09-28T23:21:56.080Z,27.23
2022-09-28T23:24:26.797Z,65.85
2022-09-28T23:26:57.164Z,26.40
2022-09-28T23:29:27.633Z,26.05
2022-09-28T23:31:58.044Z,25.98
2022-09-28T23:34:28.389Z,26.00
2022-09-28T23:36:58.848Z,25.75
2022-09-28T23:39:29.240Z,26.10
2022-09-28T23:42:00.537Z,25.98
2022-09-28T23:44:32.786Z,25.00
2022-09-28T23:47:03.829Z,24.85
2022-09-28T23:49:34.543Z,25.15
2022-09-28T23:52:05.308Z,24.98
2022-09-28T23:54:36.329Z,25.40
2022-09-28T23:57:07.186Z,24.35
2022-09-28T23:59:37.875Z,43.00
